Time;durP1;ratioP1;P1;durP2;ratioP2;P2;SDS_P1;SDS_P2;PMS_P1;PMS_P2;Temp;Humidity;BMP_temperature;BMP_pressure;BME280_temperature;BME280_humidity;BME280_pressure;Samples;Min_cycle;Max_cycle;Signal;HPM_P1;HPM_P2
2021/03/27 00:01:02;;;;;;;15.27;9.63;;;9.50;99.90;;;;;;6084036;29;20024;-90
2021/03/27 00:04:14;;;;;;;10.45;8.48;;;9.60;99.90;;;;;;6063442;29;20044;-92
2021/03/27 00:07:25;;;;;;;11.48;8.73;;;9.70;99.90;;;;;;6069223;29;20025;-92
2021/03/27 00:10:30;;;;;;;10.50;8.40;;;;;;;;;;6063454;29;20091;-92
2021/03/27 00:13:44;;;;;;;13.15;8.63;;;9.70;99.90;;;;;;6099931;29;20068;-90
2021/03/27 00:16:50;;;;;;;10.32;8.90;;;9.70;99.90;;;;;;6082076;29;20407;-91
2021/03/27 00:19:58;;;;;;;12.25;8.80;;;9.50;99.90;;;;;;6099807;29;20040;-93
2021/03/27 00:23:13;;;;;;;10.48;8.05;;;9.70;99.90;;;;;;6069241;29;20028;-91
2021/03/27 00:26:24;;;;;;;11.75;9.65;;;9.60;99.90;;;;;;6083282;29;20063;-91
2021/03/27 00:29:30;;;;;;;11.25;9.00;;;9.60;99.90;;;;;;6076717;29;20140;-92
2021/03/27 00:33:01;;;;;;;9.63;7.65;;;10.00;99.90;;;;;;6063681;29;20036;-93
2021/03/27 00:36:14;;;;;;;6.97;5.63;;;10.10;99.90;;;;;;6053846;29;20044;-92
2021/03/27 00:39:20;;;;;;;7.82;6.65;;;11.00;99.90;;;;;;6068595;29;20038;-93
2021/03/27 00:42:29;;;;;;;9.80;6.60;;;10.00;99.90;;;;;;6069004;29;20436;-91
2021/03/27 00:45:52;;;;;;;11.60;6.60;;;10.10;99.90;;;;;;6066136;29;20143;-91
2021/03/27 00:49:00;;;;;;;7.68;5.78;;;10.00;99.90;;;;;;6083537;29;20024;-94
2021/03/27 00:52:06;;;;;;;6.63;5.32;;;10.20;99.30;;;;;;6063648;29;20032;-91
2021/03/27 00:55:10;;;;;;;8.70;7.18;;;10.00;99.90;;;;;;6068487;29;20032;-93
2021/03/27 00:58:33;;;;;;;10.60;7.47;;;10.10;99.10;;;;;;6068327;29;20040;-92
2021/03/27 01:01:38;;;;;;;8.48;7.35;;;10.00;99.90;;;;;;6068620;29;20566;-93
2021/03/27 01:04:39;;;;;;;7.97;6.63;;;10.00;99.90;;;;;;6083317;29;20067;-92
2021/03/27 01:07:40;;;;;;;10.50;7.80;;;;;;;;;;6068326;29;20079;-93
2021/03/27 01:10:51;;;;;;;10.25;6.93;;;9.90;99.90;;;;;;6084128;29;20048;-92
2021/03/27 01:13:53;;;;;;;8.43;6.57;;;9.90;99.90;;;;;;6076824;29;20382;-91
2021/03/27 01:16:58;;;;;;;8.32;7.20;;;10.00;99.90;;;;;;6068027;29;20447;-91
2021/03/27 01:20:05;;;;;;;8.77;6.32;;;9.90;99.90;;;;;;6066062;29;20039;-91
2021/03/27 01:23:07;;;;;;;7.43;6.38;;;;;;;;;;6068975;29;20028;-91
2021/03/27 01:26:15;;;;;;;7.93;7.05;;;9.70;99.90;;;;;;6083435;29;20028;-91
2021/03/27 01:29:44;;;;;;;9.02;7.25;;;9.80;99.90;;;;;;6068164;29;20348;-92
2021/03/27 01:32:57;;;;;;;8.07;6.90;;;9.70;99.90;;;;;;6078131;29;20040;-92
2021/03/27 01:36:00;;;;;;;;;;;9.60;99.90;;;;;;6084160;29;20028;-91
2021/03/27 01:39:07;;;;;;;8.27;6.47;;;9.70;99.90;;;;;;6085057;29;19919;-92
2021/03/27 01:42:10;;;;;;;6.68;5.10;;;9.80;99.90;;;;;;6065778;29;20040;-91
2021/03/27 01:45:11;;;;;;;6.68;4.53;;;;;;;;;;6110081;29;20133;-91
2021/03/27 01:48:34;;;;;;;6.43;3.13;;;9.80;99.90;;;;;;6110808;29;20382;-91
2021/03/27 01:51:47;;;;;;;5.25;3.78;;;9.70;99.90;;;;;;6094649;29;20040;-91
2021/03/27 01:55:06;;;;;;;;;;;9.80;99.90;;;;;;6111473;29;20032;-90
2021/03/27 01:58:39;;;;;;;5.15;3.38;;;9.70;99.90;;;;;;6100326;29;19941;-92
2021/03/27 02:01:42;;;;;;;3.70;3.15;;;9.50;99.90;;;;;;6080399;29;20042;-91
2021/03/27 02:05:00;;;;;;;3.80;2.95;;;9.60;99.90;;;;;;6094939;29;20027;-91
2021/03/27 02:08:06;;;;;;;4.13;3.20;;;9.60;99.90;;;;;;6094716;29;20036;-91
2021/03/27 02:11:30;;;;;;;2.63;2.40;;;9.70;99.90;;;;;;6094449;29;20020;-91
2021/03/27 02:14:33;;;;;;;3.20;2.75;;;;;;;;;;6093197;29;20047;-91
2021/03/27 02:17:41;;;;;;;3.00;2.65;;;;;;;;;;6094752;29;20043;-91
2021/03/27 02:21:08;;;;;;;4.07;2.70;;;9.70;99.90;;;;;;6094098;29;20032;-91
2021/03/27 02:24:30;;;;;;;3.03;2.70;;;9.60;99.90;;;;;;6073354;29;20398;-92
2021/03/27 02:28:09;;;;;;;2.70;2.40;;;9.40;99.90;;;;;;6110042;29;20106;-91
2021/03/27 02:31:19;;;;;;;3.72;2.83;;;9.50;99.20;;;;;;6105485;29;20040;-91
2021/03/27 02:34:38;;;;;;;3.92;3.03;;;9.30;99.90;;;;;;6094266;29;20043;-90
2021/03/27 02:37:39;;;;;;;2.90;2.60;;;9.50;99.90;;;;;;6102091;29;20071;-92
2021/03/27 02:40:48;;;;;;;4.47;3.13;;;9.30;99.90;;;;;;6093811;29;20035;-91
2021/03/27 02:44:04;;;;;;;3.28;2.97;;;9.30;99.90;;;;;;6078794;29;20035;-92
2021/03/27 02:47:45;;;;;;;3.85;3.17;;;9.40;99.00;;;;;;6086911;29;20055;-91
2021/03/27 02:51:33;;;;;;;3.20;2.90;;;9.30;97.90;;;;;;6100733;29;20131;-93
2021/03/27 02:55:09;;;;;;;5.38;3.63;;;9.30;97.80;;;;;;6034260;29;20079;-92
2021/03/27 02:58:34;;;;;;;7.25;4.28;;;9.50;99.90;;;;;;6089127;29;20491;-91
2021/03/27 03:01:49;;;;;;;5.15;3.72;;;9.40;97.70;;;;;;6071372;29;20038;-91
2021/03/27 03:41:45;;;;;;;6.13;4.70;;;9.20;99.90;;;;;;6023601;29;20498;-92
2021/03/27 04:12:19;;;;;;;4.25;2.75;;;10.00;99.90;;;;;;5960603;29;20043;-91
2021/03/27 04:15:28;;;;;;;3.47;2.88;;;7.40;99.90;;;;;;6054987;29;20046;-90
2021/03/27 04:18:33;;;;;;;3.38;3.00;;;7.30;99.90;;;;;;6068407;29;20043;-89
2021/03/27 04:21:53;;;;;;;4.72;3.38;;;7.40;99.90;;;;;;6083870;29;20096;-91
2021/03/27 04:25:10;;;;;;;4.65;2.88;;;7.20;99.90;;;;;;6084307;29;20020;-90
2021/03/27 04:28:19;;;;;;;4.47;2.75;;;7.30;99.90;;;;;;6083873;29;20540;-90
2021/03/27 04:31:42;;;;;;;6.78;2.55;;;7.30;99.90;;;;;;6086007;29;20024;-89
2021/03/27 04:34:52;;;;;;;2.90;2.60;;;7.30;99.90;;;;;;6094588;29;20123;-90
2021/03/27 04:38:13;;;;;;;3.72;2.80;;;7.50;99.90;;;;;;6083723;29;20763;-90
2021/03/27 05:06:43;;;;;;;2.45;2.17;;;7.20;99.80;;;;;;7410707;23;20022;-91
2021/03/27 05:10:23;;;;;;;1.70;1.50;;;7.10;98.60;;;;;;6066887;29;20040;-91
2021/03/27 05:13:24;;;;;;;3.00;1.40;;;;;;;;;;6080467;29;20028;-90
2021/03/27 05:37:00;;;;;;;3.35;1.67;;;6.30;99.30;;;;;;5943288;29;20118;-90
2021/03/27 05:40:46;;;;;;;1.85;1.63;;;6.40;99.90;;;;;;5937965;29;20053;-90
2021/03/27 05:44:10;;;;;;;1.63;1.15;;;6.50;99.90;;;;;;6002180;29;20032;-89
2021/03/27 05:47:23;;;;;;;4.05;1.55;;;6.30;99.90;;;;;;6064327;29;20037;-90
2021/03/27 05:50:58;;;;;;;5.65;1.67;;;6.40;99.90;;;;;;6071214;29;20025;-89
2021/03/27 05:54:07;;;;;;;3.33;1.40;;;6.50;99.90;;;;;;6069088;29;20498;-89
2021/03/27 05:57:20;;;;;;;1.95;1.70;;;6.60;99.90;;;;;;6070137;29;20467;-91
2021/03/27 06:00:26;;;;;;;4.75;1.77;;;6.70;99.90;;;;;;6079563;29;20464;-90
2021/03/27 06:03:50;;;;;;;3.90;1.30;;;7.00;99.90;;;;;;6086388;29;20473;-89
2021/03/27 06:07:15;;;;;;;3.83;1.55;;;6.90;99.90;;;;;;6065121;29;20061;-91
2021/03/27 06:10:28;;;;;;;2.42;1.52;;;6.70;99.90;;;;;;6079539;29;20032;-90
2021/03/27 06:13:29;;;;;;;2.92;1.92;;;;;;;;;;6090781;29;20033;-89
2021/03/27 06:16:36;;;;;;;2.97;1.60;;;6.60;98.50;;;;;;6088627;29;20032;-90
2021/03/27 06:19:58;;;;;;;1.52;1.35;;;6.50;99.90;;;;;;6089366;29;20442;-89
2021/03/27 06:23:17;;;;;;;4.43;1.90;;;6.30;99.90;;;;;;6068810;29;20032;-90
2021/03/27 06:26:31;;;;;;;5.80;1.88;;;;;;;;;;6083294;29;20380;-87
2021/03/27 06:30:03;;;;;;;3.78;1.67;;;6.60;99.90;;;;;;6084739;29;20404;-88
2021/03/27 06:33:17;;;;;;;5.03;2.20;;;6.50;96.50;;;;;;6086362;29;20032;-91
2021/03/27 06:36:21;;;;;;;4.22;1.85;;;6.60;99.90;;;;;;6067111;29;20036;-85
2021/03/27 06:39:31;;;;;;;4.00;1.67;;;6.60;99.90;;;;;;6090483;29;20037;-82
2021/03/27 06:42:43;;;;;;;3.63;1.65;;;6.50;97.10;;;;;;6069500;29;20032;-84
2021/03/27 06:46:22;;;;;;;3.33;1.50;;;6.70;99.90;;;;;;6079556;29;20040;-80
2021/03/27 06:49:47;;;;;;;5.35;2.00;;;6.60;99.90;;;;;;6078656;29;20370;-82
2021/03/27 06:53:06;;;;;;;3.00;1.92;;;6.70;99.90;;;;;;6077686;29;20032;-80
2021/03/27 06:56:12;;;;;;;2.40;1.77;;;6.60;99.90;;;;;;6076921;29;20044;-80
2021/03/27 06:59:35;;;;;;;3.45;1.60;;;7.10;99.90;;;;;;6065692;29;20035;-80
2021/03/27 07:02:55;;;;;;;;;;;7.20;99.90;;;;;;6077469;29;20036;-81
2021/03/27 07:06:34;;;;;;;3.30;1.45;;;9.30;89.20;;;;;;6077512;29;19918;-80
2021/03/27 07:10:04;;;;;;;1.73;1.58;;;10.30;97.40;;;;;;6091316;29;20067;-80
2021/03/27 07:13:16;;;;;;;4.82;1.83;;;10.80;95.00;;;;;;6078585;29;20444;-84
2021/03/27 07:16:32;;;;;;;2.38;1.98;;;11.10;94.40;;;;;;6078369;29;20043;-80
2021/03/27 07:19:59;;;;;;;2.42;1.88;;;11.10;78.50;;;;;;6081058;29;20032;-81
2021/03/27 07:23:09;;;;;;;3.90;1.77;;;11.60;93.20;;;;;;6050392;29;20810;-84
2021/03/27 07:26:43;;;;;;;1.50;1.40;;;11.50;91.80;;;;;;6077904;29;20031;-82
2021/03/27 07:29:58;;;;;;;6.10;2.40;;;11.00;92.80;;;;;;6099906;29;20080;-81
2021/03/27 07:37:04;;;;;;;2.70;2.08;;;11.20;89.90;;;;;;6080568;29;20036;-80
2021/03/27 07:40:15;;;;;;;3.15;2.00;;;10.40;94.30;;;;;;6084027;29;20056;-83
2021/03/27 07:43:53;;;;;;;4.95;2.30;;;10.90;95.10;;;;;;6080546;29;20028;-82
2021/03/27 07:47:25;;;;;;;3.72;1.95;;;11.70;92.40;;;;;;6088910;29;20606;-81
2021/03/27 07:51:03;;;;;;;5.60;2.40;;;11.80;91.00;;;;;;6080262;29;20088;-80
2021/03/27 07:54:19;;;;;;;2.60;2.10;;;11.90;69.20;;;;;;6076389;29;20033;-80
2021/03/27 07:57:52;;;;;;;3.92;1.70;;;12.10;66.70;;;;;;6076620;29;20088;-81
2021/03/27 08:01:16;;;;;;;4.40;2.17;;;12.90;70.10;;;;;;6048888;29;20476;-81
2021/03/27 08:04:48;;;;;;;1.88;1.60;;;13.30;69.40;;;;;;6066960;29;20044;-84
2021/03/27 08:08:43;;;;;;;4.20;1.63;;;13.30;83.00;;;;;;6085760;29;20048;-81
2021/03/27 08:12:08;;;;;;;2.85;2.03;;;13.30;83.00;;;;;;6007197;29;20422;-83
2021/03/27 08:15:27;;;;;;;2.38;2.05;;;13.70;82.90;;;;;;6079626;29;20083;-87
2021/03/27 08:19:01;;;;;;;2.17;1.58;;;13.60;81.40;;;;;;6072618;29;20037;-83
2021/03/27 08:22:43;;;;;;;2.42;1.80;;;14.20;78.90;;;;;;6081716;29;20036;-84
2021/03/27 08:26:07;;;;;;;5.50;3.40;;;14.40;79.00;;;;;;6071149;29;20044;-81
2021/03/27 08:29:28;;;;;;;2.50;1.60;;;14.40;78.20;;;;;;6065988;29;20066;-83
2021/03/27 08:33:07;;;;;;;3.00;1.83;;;15.00;58.40;;;;;;6081851;29;20032;-81
2021/03/27 08:36:23;;;;;;;5.20;1.98;;;15.40;77.30;;;;;;6060880;29;20110;-81
2021/03/27 08:39:40;;;;;;;2.42;1.77;;;15.40;56.00;;;;;;6079924;29;20025;-86
2021/03/27 08:42:56;;;;;;;5.10;2.55;;;14.90;54.30;;;;;;6048369;29;20029;-87
2021/03/27 08:46:23;;;;;;;4.57;1.90;;;14.30;59.50;;;;;;6086199;29;20123;-87
2021/03/27 08:49:42;;;;;;;3.90;2.20;;;13.40;54.60;;;;;;6087317;29;20092;-86
2021/03/27 08:52:43;;;;;;;4.63;1.95;;;;;;;;;;6089203;29;20060;-85
2021/03/27 08:56:24;;;;;;;7.03;1.70;;;12.70;77.40;;;;;;6095502;29;20020;-88
2021/03/27 09:00:04;;;;;;;3.40;2.05;;;12.90;75.10;;;;;;6082970;29;20048;-80
2021/03/27 09:03:20;;;;;;;3.83;2.13;;;13.50;71.70;;;;;;6081195;29;20036;-79
2021/03/27 09:06:34;;;;;;;2.35;1.80;;;13.60;56.70;;;;;;6092303;29;20127;-83
2021/03/27 09:10:06;;;;;;;2.90;1.77;;;14.10;55.40;;;;;;6085550;29;20068;-79
2021/03/27 09:13:31;;;;;;;3.03;1.83;;;14.30;54.20;;;;;;6078538;29;20126;-79
2021/03/27 09:16:37;;;;;;;2.75;1.52;;;15.10;51.90;;;;;;6068688;29;20088;-79
2021/03/27 09:19:47;;;;;;;4.43;2.00;;;15.90;49.80;;;;;;6080395;29;20028;-79
2021/03/27 09:23:00;;;;;;;2.83;1.70;;;15.90;52.10;;;;;;6079913;29;20028;-78
2021/03/27 09:26:38;;;;;;;3.55;2.00;;;15.90;50.30;;;;;;6090073;29;20432;-77
2021/03/27 09:29:51;;;;;;;3.75;2.03;;;15.80;49.50;;;;;;6072269;29;20088;-85
2021/03/27 09:33:11;;;;;;;3.25;1.92;;;15.00;49.90;;;;;;6075163;29;20088;-81
2021/03/27 09:36:15;;;;;;;8.60;2.67;;;14.60;48.30;;;;;;6066987;29;20048;-79
2021/03/27 09:39:28;;;;;;;3.72;1.88;;;14.90;52.60;;;;;;6086116;29;20460;-80
2021/03/27 09:43:01;;;;;;;7.00;2.63;;;14.80;50.10;;;;;;6072022;29;20408;-86
2021/03/27 09:50:17;;;;;;;3.63;2.00;;;15.00;47.60;;;;;;6098921;29;20123;-82
2021/03/27 09:53:34;;;;;;;2.90;1.90;;;15.30;67.50;;;;;;6099095;29;20098;-79
2021/03/27 09:57:01;;;;;;;3.55;2.03;;;15.40;83.90;;;;;;6063950;29;20482;-79
2021/03/27 10:00:02;;;;;;;3.45;1.95;;;;;;;;;;6094670;29;20093;-82
2021/03/27 10:03:17;;;;;;;4.20;1.88;;;15.50;57.50;;;;;;6092646;29;20103;-78
2021/03/27 10:06:52;;;;;;;3.75;2.22;;;14.00;59.60;;;;;;6075758;29;20040;-78
2021/03/27 10:10:15;;;;;;;4.22;2.10;;;14.50;60.60;;;;;;6082751;29;20118;-78
2021/03/27 10:13:43;;;;;;;3.55;1.95;;;14.20;47.90;;;;;;6100415;29;20031;-78
2021/03/27 10:16:54;;;;;;;6.82;3.03;;;14.90;49.00;;;;;;6104712;29;20054;-78
2021/03/27 10:20:01;;;;;;;5.63;2.67;;;15.60;47.10;;;;;;6096132;29;20026;-78
2021/03/27 10:23:28;;;;;;;3.40;2.47;;;15.80;48.00;;;;;;6101375;29;20028;-79
2021/03/27 10:27:06;;;;;;;4.35;2.58;;;15.10;48.50;;;;;;6094544;29;20391;-79
2021/03/27 10:30:13;;;;;;;4.18;1.80;;;14.60;51.00;;;;;;6084158;29;20387;-79
2021/03/27 10:33:22;;;;;;;6.88;2.92;;;14.80;48.70;;;;;;6100674;29;20215;-79
2021/03/27 10:36:22;;;;;;;6.68;3.20;;;14.80;47.90;;;;;;6059036;29;20039;-80
2021/03/27 10:39:42;;;;;;;5.57;2.60;;;15.50;53.10;;;;;;6099628;29;20435;-80
2021/03/27 10:43:04;;;;;;;8.50;3.75;;;15.40;49.00;;;;;;6100231;29;20039;-82
2021/03/27 10:46:33;;;;;;;8.70;2.70;;;13.90;48.70;;;;;;6101315;29;20036;-80
2021/03/27 10:49:59;;;;;;;5.82;3.03;;;14.90;50.00;;;;;;6101144;29;20086;-80
2021/03/27 10:53:21;;;;;;;12.38;6.45;;;13.40;51.90;;;;;;6097492;29;20035;-81
2021/03/27 10:56:40;;;;;;;8.18;4.32;;;13.90;51.40;;;;;;6098208;29;20039;-80
2021/03/27 11:00:02;;;;;;;8.90;3.92;;;13.60;69.30;;;;;;6097861;29;20031;-81
2021/03/27 11:03:41;;;;;;;12.77;8.30;;;13.90;69.00;;;;;;6098453;29;20467;-83
2021/03/27 11:07:15;;;;;;;3.10;2.22;;;14.00;50.90;;;;;;6099211;29;20109;-80
2021/03/27 11:11:01;;;;;;;6.40;2.83;;;13.10;76.70;;;;;;6098820;29;20040;-80
2021/03/27 11:14:26;;;;;;;5.93;2.65;;;13.20;55.50;;;;;;6069969;29;20040;-81
2021/03/27 11:17:30;;;;;;;4.15;2.63;;;14.20;54.50;;;;;;6099943;29;20036;-82
2021/03/27 11:21:01;;;;;;;8.30;3.55;;;14.70;57.60;;;;;;6099570;29;20028;-81
2021/03/27 11:24:06;;;;;;;3.67;2.65;;;15.20;47.20;;;;;;6082404;29;20862;-83
2021/03/27 11:27:27;;;;;;;5.05;3.22;;;15.00;83.50;;;;;;6098766;29;20024;-82
2021/03/27 11:30:46;;;;;;;5.57;2.08;;;14.60;76.70;;;;;;6089633;29;20489;-81
2021/03/27 11:34:23;;;;;;;6.10;2.75;;;14.50;56.10;;;;;;6262982;28;20423;-78
2021/03/27 11:37:54;;;;;;;3.40;2.38;;;14.60;69.70;;;;;;6262645;28;20475;-80
2021/03/27 11:41:02;;;;;;;5.18;2.88;;;14.70;63.40;;;;;;6238399;28;20032;-79
2021/03/27 11:44:26;;;;;;;4.85;2.50;;;15.30;50.50;;;;;;6222655;28;20026;-81
2021/03/27 11:47:55;;;;;;;5.32;2.53;;;15.90;49.10;;;;;;6226939;28;20032;-79
2021/03/27 11:51:17;;;;;;;4.75;2.60;;;15.80;72.30;;;;;;6222217;28;20037;-81
2021/03/27 11:54:34;;;;;;;5.85;3.22;;;15.90;52.70;;;;;;6222183;28;20033;-78
2021/03/27 11:57:54;;;;;;;2.88;1.80;;;16.40;70.80;;;;;;6236581;28;20492;-80
2021/03/27 12:04:27;;;;;;;4.13;2.05;;;16.00;52.20;;;;;;6237010;28;20076;-81
2021/03/27 12:07:55;;;;;;;3.17;2.20;;;16.00;47.00;;;;;;6232015;28;20040;-83
2021/03/27 12:11:12;;;;;;;3.58;1.95;;;14.70;69.60;;;;;;6239452;28;20121;-80
2021/03/27 12:14:21;;;;;;;2.58;1.95;;;14.10;71.30;;;;;;6221099;28;20368;-81
2021/03/27 12:17:47;;;;;;;4.15;2.17;;;14.30;53.80;;;;;;6238396;28;20033;-79
2021/03/27 12:21:05;;;;;;;1.95;1.45;;;14.30;52.70;;;;;;6221542;28;20029;-80
2021/03/27 12:24:23;;;;;;;4.50;1.85;;;13.80;73.60;;;;;;6217324;28;20018;-79
2021/03/27 12:27:31;;;;;;;3.83;2.00;;;13.90;51.10;;;;;;6237515;28;20026;-79
2021/03/27 12:31:07;;;;;;;2.45;1.85;;;14.00;74.50;;;;;;6220669;28;20041;-79
2021/03/27 12:34:28;;;;;;;3.03;2.00;;;14.10;52.90;;;;;;6229926;28;20087;-80
2021/03/27 12:37:38;;;;;;;4.40;2.20;;;14.20;58.50;;;;;;6236291;28;20116;-81
2021/03/27 12:41:05;;;;;;;4.05;1.75;;;14.60;72.50;;;;;;6235037;28;20932;-81
2021/03/27 12:44:07;;;;;;;2.85;1.73;;;14.70;50.90;;;;;;6228207;28;20066;-78
2021/03/27 12:47:29;;;;;;;3.85;2.00;;;14.60;54.50;;;;;;6220333;28;20112;-79
2021/03/27 12:50:51;;;;;;;4.43;2.30;;;14.80;87.40;;;;;;6220056;28;20018;-79
2021/03/27 12:54:22;;;;;;;3.35;2.13;;;14.80;57.10;;;;;;6219972;28;20091;-80
2021/03/27 12:57:39;;;;;;;4.80;2.05;;;14.00;72.80;;;;;;6220524;28;20345;-79
2021/03/27 13:00:53;;;;;;;2.75;1.90;;;14.10;52.00;;;;;;6237482;28;20073;-79
2021/03/27 13:04:20;;;;;;;4.05;2.20;;;13.00;73.70;;;;;;6194816;28;20415;-78
2021/03/27 13:07:44;;;;;;;3.55;1.98;;;13.30;68.90;;;;;;6205173;28;20081;-79
2021/03/27 13:10:52;;;;;;;3.88;2.25;;;12.90;82.30;;;;;;6220304;28;20480;-79
2021/03/27 13:13:55;;;;;;;4.95;1.85;;;12.80;71.00;;;;;;6220771;28;20037;-80
2021/03/27 13:17:04;;;;;;;4.03;2.08;;;12.90;73.20;;;;;;6220265;28;20029;-80
2021/03/27 13:20:18;;;;;;;4.55;1.85;;;12.60;55.40;;;;;;6218128;28;20105;-81
2021/03/27 13:23:25;;;;;;;3.85;2.08;;;12.60;73.60;;;;;;6221162;28;20472;-80
2021/03/27 13:26:30;;;;;;;3.50;2.00;;;12.90;55.80;;;;;;6203683;28;20045;-78
2021/03/27 13:29:37;;;;;;;4.25;1.75;;;14.00;76.00;;;;;;6203931;28;20029;-80
2021/03/27 13:32:38;;;;;;;2.60;1.70;;;;;;;;;;6203658;28;20042;-80
2021/03/27 13:35:50;;;;;;;5.88;1.98;;;13.70;66.20;;;;;;6218782;28;20022;-79
2021/03/27 13:39:14;;;;;;;3.72;2.17;;;14.10;77.40;;;;;;6220068;28;20032;-78
2021/03/27 13:42:25;;;;;;;3.30;1.95;;;14.50;88.50;;;;;;6210301;28;20022;-77
2021/03/27 13:45:36;;;;;;;5.50;3.00;;;;;;;;;;6219723;28;20045;-82
2021/03/27 13:48:48;;;;;;;2.53;1.83;;;14.20;63.60;;;;;;6220939;28;20030;-78
2021/03/27 13:51:51;;;;;;;;;;;14.10;67.10;;;;;;6219309;28;20060;-77
2021/03/27 13:55:00;;;;;;;5.65;2.15;;;12.60;53.00;;;;;;6233513;28;19913;-79
2021/03/27 13:58:27;;;;;;;2.63;1.90;;;13.00;51.40;;;;;;6215598;28;20032;-80
2021/03/27 14:01:32;;;;;;;3.65;1.75;;;13.30;77.10;;;;;;6219453;28;20132;-81
2021/03/27 14:04:44;;;;;;;3.33;1.65;;;13.40;76.10;;;;;;6219112;28;20380;-83
2021/03/27 14:07:53;;;;;;;4.85;2.17;;;13.50;57.10;;;;;;6218319;28;20041;-79
2021/03/27 14:10:59;;;;;;;2.90;2.00;;;13.60;71.60;;;;;;6203263;28;20357;-81
2021/03/27 14:14:02;;;;;;;3.97;1.92;;;13.20;72.80;;;;;;6218910;28;20079;-80
2021/03/27 14:17:23;;;;;;;2.40;1.52;;;13.60;54.80;;;;;;6203022;28;20368;-83
2021/03/27 14:20:45;;;;;;;3.00;1.63;;;13.30;70.40;;;;;;6202735;28;20033;-79
2021/03/27 14:24:25;;;;;;;4.10;2.30;;;13.50;70.30;;;;;;6202552;28;20037;-81
2021/03/27 14:27:37;;;;;;;3.05;1.83;;;13.20;69.50;;;;;;6220301;28;20591;-81
2021/03/27 14:30:54;;;;;;;2.28;1.65;;;13.30;83.90;;;;;;6204597;28;20030;-80
2021/03/27 14:34:30;;;;;;;2.85;2.00;;;13.30;53.90;;;;;;6218766;28;20064;-81
2021/03/27 14:37:49;;;;;;;7.85;1.83;;;13.40;66.10;;;;;;6206529;28;20081;-82
2021/03/27 14:40:51;;;;;;;2.65;1.77;;;13.60;51.80;;;;;;6219104;28;20037;-80
2021/03/27 14:44:24;;;;;;;3.63;1.85;;;13.60;52.50;;;;;;6201434;28;20048;-79
2021/03/27 14:47:39;;;;;;;;;;;13.90;54.10;;;;;;6197161;28;20069;-78
2021/03/27 14:51:05;;;;;;;4.75;2.60;;;13.70;65.80;;;;;;6251118;28;20362;-79
2021/03/27 14:54:42;;;;;;;4.43;2.17;;;13.40;50.10;;;;;;6218360;28;20084;-80
2021/03/27 14:58:04;;;;;;;2.55;1.98;;;13.80;68.30;;;;;;6219582;28;20104;-80
2021/03/27 15:01:12;;;;;;;4.20;2.17;;;13.90;48.40;;;;;;6218124;28;20111;-82
2021/03/27 15:04:32;;;;;;;5.40;1.77;;;13.90;54.30;;;;;;6217880;28;20029;-79
2021/03/27 15:07:38;;;;;;;4.15;2.03;;;13.90;49.60;;;;;;6217311;28;20100;-82
2021/03/27 15:10:59;;;;;;;4.85;2.08;;;13.90;51.30;;;;;;6217890;28;20487;-81
2021/03/27 15:14:22;;;;;;;5.28;2.10;;;13.60;50.60;;;;;;6217868;28;20034;-79
2021/03/27 15:18:10;;;;;;;3.20;1.70;;;13.50;52.70;;;;;;6201759;28;20503;-78
2021/03/27 15:21:13;;;;;;;4.70;1.90;;;14.10;69.00;;;;;;6217584;28;20057;-78
2021/03/27 15:24:28;;;;;;;4.10;1.95;;;13.80;54.70;;;;;;6215687;28;20053;-80
2021/03/27 15:27:29;;;;;;;5.13;1.98;;;13.80;51.70;;;;;;6207160;28;20808;-81
2021/03/27 15:30:43;;;;;;;3.47;1.95;;;13.80;53.30;;;;;;6201013;28;20030;-83
2021/03/27 15:34:10;;;;;;;7.60;2.28;;;13.50;48.80;;;;;;6216474;28;20456;-79
2021/03/27 15:37:27;;;;;;;6.20;1.98;;;13.30;48.80;;;;;;6217443;28;20026;-80
2021/03/27 15:40:31;;;;;;;4.88;2.10;;;12.00;69.40;;;;;;6217508;28;20026;-80
2021/03/27 15:43:34;;;;;;;4.95;2.53;;;12.60;52.60;;;;;;6201627;28;20030;-80
2021/03/27 15:46:41;;;;;;;5.90;2.50;;;11.80;83.80;;;;;;6217603;28;20040;-79
2021/03/27 15:49:44;;;;;;;4.18;2.08;;;11.80;73.10;;;;;;6202179;28;20092;-79
2021/03/27 15:52:52;;;;;;;3.80;1.85;;;12.50;70.00;;;;;;6192837;28;20488;-79
2021/03/27 15:55:55;;;;;;;3.08;2.33;;;12.00;57.90;;;;;;6214848;28;20405;-79
2021/03/27 15:58:56;;;;;;;11.10;2.30;;;11.90;53.90;;;;;;6217483;28;20416;-78
2021/03/27 16:01:57;;;;;;;3.08;1.88;;;11.90;56.50;;;;;;6217673;28;20080;-80
2021/03/27 16:05:24;;;;;;;3.85;2.28;;;12.00;55.90;;;;;;6216677;28;20030;-79
2021/03/27 16:08:51;;;;;;;4.45;2.15;;;12.00;53.50;;;;;;6200443;28;20088;-82
2021/03/27 16:12:15;;;;;;;5.40;2.40;;;12.20;53.20;;;;;;6216459;28;20030;-82
2021/03/27 16:15:32;;;;;;;4.97;2.33;;;12.20;55.20;;;;;;6212243;28;20091;-82
2021/03/27 16:19:17;;;;;;;4.07;2.10;;;12.30;54.20;;;;;;6202352;28;20036;-79
2021/03/27 16:22:42;;;;;;;4.25;2.33;;;12.20;53.40;;;;;;6204968;28;20026;-81
2021/03/27 16:26:20;;;;;;;15.65;3.60;;;12.10;53.20;;;;;;6212261;28;20041;-78
2021/03/27 16:29:30;;;;;;;8.45;2.72;;;12.10;61.20;;;;;;6221239;28;20037;-82
2021/03/27 16:32:53;;;;;;;8.98;3.55;;;12.90;55.50;;;;;;6218955;28;20081;-79
2021/03/27 16:36:10;;;;;;;4.40;2.20;;;12.90;58.00;;;;;;6237040;28;20030;-80
2021/03/27 16:39:39;;;;;;;3.35;2.17;;;13.00;56.20;;;;;;6219857;28;20452;-80
2021/03/27 16:43:02;;;;;;;5.07;2.20;;;12.70;50.30;;;;;;6221865;28;20029;-79
2021/03/27 16:46:32;;;;;;;3.65;2.20;;;12.40;69.70;;;;;;6236678;28;20018;-80
2021/03/27 16:49:40;;;;;;;32.25;17.77;;;12.10;53.30;;;;;;6219606;28;20026;-79
2021/03/27 16:53:15;;;;;;;11.85;8.55;;;11.70;78.40;;;;;;6225894;28;20061;-80
2021/03/27 16:56:56;;;;;;;4.00;2.50;;;11.60;54.60;;;;;;6209594;28;20053;-80
2021/03/27 17:00:17;;;;;;;4.22;2.15;;;11.60;55.30;;;;;;6218657;28;20050;-79
2021/03/27 17:03:31;;;;;;;4.55;2.17;;;11.50;57.00;;;;;;6219688;28;20909;-78
2021/03/27 17:06:55;;;;;;;4.63;2.05;;;11.30;73.10;;;;;;6219554;28;20460;-78
2021/03/27 17:10:04;;;;;;;5.57;2.15;;;11.00;68.40;;;;;;6219514;28;20476;-78
2021/03/27 17:13:15;;;;;;;5.15;2.15;;;11.20;69.50;;;;;;6212943;28;20060;-77
2021/03/27 17:16:37;;;;;;;5.63;2.78;;;11.20;53.80;;;;;;6217497;28;20044;-79
2021/03/27 17:19:55;;;;;;;6.07;2.50;;;11.00;55.60;;;;;;6219713;28;20033;-77
2021/03/27 17:23:22;;;;;;;4.57;2.50;;;10.90;59.70;;;;;;6219212;28;20040;-77
2021/03/27 17:26:29;;;;;;;6.80;2.60;;;11.00;56.30;;;;;;6203449;28;20372;-79
2021/03/27 17:29:42;;;;;;;5.70;2.65;;;10.60;75.50;;;;;;6219453;28;20088;-78
2021/03/27 17:32:51;;;;;;;4.50;2.53;;;10.70;58.40;;;;;;6219088;28;20061;-79
2021/03/27 17:35:59;;;;;;;3.55;2.22;;;10.40;74.90;;;;;;6206705;28;20026;-79
2021/03/27 17:39:20;;;;;;;6.10;2.38;;;10.30;87.90;;;;;;6218134;28;20372;-78
2021/03/27 17:42:38;;;;;;;6.07;2.20;;;10.40;90.20;;;;;;6204947;28;20108;-79
2021/03/27 17:45:45;;;;;;;6.15;3.05;;;10.20;77.60;;;;;;6234565;28;20030;-77
2021/03/27 17:48:59;;;;;;;6.38;2.75;;;10.30;57.50;;;;;;6235434;28;20045;-79
2021/03/27 17:52:06;;;;;;;5.00;2.75;;;10.30;80.20;;;;;;6218794;28;20037;-78
2021/03/27 17:55:13;;;;;;;6.63;2.70;;;10.80;78.90;;;;;;6219261;28;20376;-79
2021/03/27 17:58:16;;;;;;;4.93;2.60;;;10.10;78.90;;;;;;6217514;28;20116;-78
2021/03/27 18:01:48;;;;;;;7.25;2.78;;;10.10;78.30;;;;;;6207016;28;20092;-79
2021/03/27 18:04:59;;;;;;;5.20;2.70;;;10.20;60.10;;;;;;6178358;28;20042;-82
2021/03/27 18:08:00;;;;;;;5.95;2.70;;;10.20;78.60;;;;;;6176045;28;20034;-85
2021/03/27 18:11:06;;;;;;;3.55;2.45;;;10.10;61.20;;;;;;6176096;28;20169;-83
2021/03/27 18:14:32;;;;;;;3.92;2.80;;;10.20;57.30;;;;;;6176354;28;20061;-83
2021/03/27 18:18:01;;;;;;;5.20;3.00;;;9.90;79.60;;;;;;6176453;28;20030;-83
2021/03/27 18:21:20;;;;;;;5.25;2.53;;;10.10;59.00;;;;;;6165616;28;20038;-85
2021/03/27 18:24:24;;;;;;;2.92;2.10;;;12.40;75.90;;;;;;6183489;28;20134;-87
2021/03/27 18:27:38;;;;;;;4.10;2.33;;;10.40;57.50;;;;;;6193083;28;20141;-87
2021/03/27 18:30:41;;;;;;;10.27;4.57;;;10.20;61.70;;;;;;6176741;28;20381;-86
2021/03/27 18:33:42;;;;;;;4.78;2.63;;;;;;;;;;6176345;28;20489;-89
2021/03/27 18:36:47;;;;;;;4.82;2.70;;;;;;;;;;6233401;28;20464;-86
2021/03/27 18:39:48;;;;;;;3.72;2.28;;;;;;;;;;6201994;28;20030;-89
2021/03/27 18:42:53;;;;;;;4.20;2.30;;;10.00;59.60;;;;;;6218433;28;20032;-88
2021/03/27 18:45:53;;;;;;;5.00;2.92;;;9.70;80.70;;;;;;6201387;28;20045;-84
2021/03/27 18:49:04;;;;;;;6.38;2.60;;;10.30;63.40;;;;;;6218726;28;20025;-83
2021/03/27 18:52:09;;;;;;;11.57;3.72;;;9.90;63.10;;;;;;6217465;28;20037;-75
2021/03/27 18:55:10;;;;;;;8.32;2.72;;;9.90;68.60;;;;;;6202023;28;20049;-76
2021/03/27 18:58:11;;;;;;;5.35;3.08;;;9.80;61.60;;;;;;6216565;28;20713;-76
2021/03/27 19:01:30;;;;;;;6.90;3.40;;;9.90;63.60;;;;;;6217873;28;20030;-76
2021/03/27 19:04:40;;;;;;;10.10;3.75;;;9.80;61.40;;;;;;6186641;28;20388;-76
2021/03/27 19:07:42;;;;;;;7.15;2.83;;;9.60;62.50;;;;;;6217165;28;20069;-75
2021/03/27 19:10:45;;;;;;;4.70;2.42;;;9.70;77.00;;;;;;6216490;28;20060;-76
2021/03/27 19:13:49;;;;;;;;;;;9.10;62.70;;;;;;6217788;28;20476;-76
2021/03/27 19:16:50;;;;;;;4.30;2.40;;;9.50;64.40;;;;;;6219129;28;19911;-76